createdAt,value
2024-04-19T00:01:23.849Z,1.30
2024-04-19T00:03:51.773Z,0.80
2024-04-19T00:06:19.349Z,1.10
2024-04-19T00:08:47.096Z,1.30
2024-04-19T00:11:14.834Z,0.90
2024-04-19T00:13:42.374Z,0.80
2024-04-19T00:16:09.857Z,1.10
2024-04-19T00:18:37.396Z,1.00
2024-04-19T00:21:05.141Z,1.00
2024-04-19T00:23:32.645Z,0.80
2024-04-19T00:26:00.275Z,0.90
2024-04-19T00:28:28.541Z,1.20
2024-04-19T00:30:56.694Z,0.90
2024-04-19T00:33:24.349Z,1.00
2024-04-19T00:35:51.970Z,0.70
2024-04-19T00:38:20.499Z,1.10
2024-04-19T00:40:48.000Z,0.70
2024-04-19T00:43:15.550Z,0.90
2024-04-19T00:45:43.137Z,1.30
2024-04-19T00:48:15.125Z,0.90
2024-04-19T00:50:46.236Z,1.40
2024-04-19T00:55:43.520Z,1.00
2024-04-19T00:58:11.033Z,1.10
2024-04-19T01:00:38.701Z,0.80
2024-04-19T01:03:06.476Z,1.00
2024-04-19T01:05:34.083Z,0.80
2024-04-19T01:08:02.154Z,1.30
2024-04-19T01:10:30.778Z,0.80
2024-04-19T01:12:58.935Z,1.20
2024-04-19T01:15:26.926Z,0.20
2024-04-19T01:17:56.974Z,0.80
2024-04-19T01:20:24.594Z,1.30
2024-04-19T01:22:52.525Z,1.20
2024-04-19T01:25:26.620Z,1.20
2024-04-19T01:27:54.162Z,0.90
2024-04-19T01:30:21.835Z,0.70
2024-04-19T01:32:49.530Z,0.80
2024-04-19T01:35:17.198Z,1.00
2024-04-19T01:37:45.838Z,1.10
2024-04-19T01:40:13.374Z,1.10
2024-04-19T01:42:40.894Z,1.20
2024-04-19T01:45:08.419Z,1.10
2024-04-19T01:47:36.570Z,1.40
2024-04-19T01:50:07.573Z,1.30
2024-04-19T01:52:35.335Z,1.40
2024-04-19T01:55:03.465Z,1.00
2024-04-19T01:57:31.392Z,1.00
2024-04-19T01:59:58.949Z,0.80
2024-04-19T02:02:28.150Z,1.00
2024-04-19T02:04:57.101Z,1.10
2024-04-19T02:07:24.596Z,1.30
2024-04-19T02:09:52.149Z,1.70
2024-04-19T02:12:19.844Z,1.40
2024-04-19T02:14:47.418Z,1.50
2024-04-19T02:17:14.981Z,1.60
2024-04-19T02:19:44.562Z,1.80
2024-04-19T02:22:12.042Z,1.60
2024-04-19T02:24:42.448Z,1.40
2024-04-19T02:27:32.411Z,1.70
2024-04-19T02:30:20.055Z,1.90
2024-04-19T02:32:47.668Z,1.70
2024-04-19T02:35:15.508Z,1.80
2024-04-19T02:37:44.051Z,1.70
2024-04-19T02:40:11.569Z,1.50
2024-04-19T02:42:40.288Z,1.80
2024-04-19T02:45:08.208Z,1.50
2024-04-19T02:47:37.343Z,1.80
2024-04-19T02:50:04.989Z,1.10
2024-04-19T02:52:32.562Z,1.20
2024-04-19T02:55:03.706Z,1.40
2024-04-19T02:57:33.082Z,1.20
2024-04-19T03:00:00.706Z,1.30
2024-04-19T03:02:28.627Z,1.40
2024-04-19T03:04:56.393Z,1.50
2024-04-19T03:07:23.864Z,1.60
2024-04-19T03:09:51.781Z,1.90
2024-04-19T03:12:19.334Z,1.80
2024-04-19T03:14:47.626Z,1.60
2024-04-19T03:17:15.213Z,1.40
2024-04-19T03:19:42.908Z,1.40
2024-04-19T03:22:10.477Z,1.60
2024-04-19T03:24:38.011Z,1.40
2024-04-19T03:27:05.776Z,1.20
2024-04-19T03:29:33.279Z,1.70
2024-04-19T03:32:00.842Z,1.40
2024-04-19T03:34:28.625Z,1.20
2024-04-19T03:36:56.169Z,1.60
2024-04-19T03:39:23.775Z,1.40
2024-04-19T03:41:52.879Z,1.40
2024-04-19T03:44:39.084Z,1.40
2024-04-19T03:47:08.100Z,1.60
2024-04-19T03:49:35.672Z,2.00
2024-04-19T03:52:03.290Z,2.20
2024-04-19T03:54:30.861Z,2.00
2024-04-19T03:56:58.676Z,1.80
2024-04-19T03:59:27.716Z,2.20
2024-04-19T04:01:55.223Z,2.20
2024-04-19T04:04:22.856Z,2.60
2024-04-19T04:06:51.094Z,2.40
2024-04-19T04:09:18.947Z,2.50
2024-04-19T04:11:46.497Z,2.60
2024-04-19T04:14:14.084Z,2.60
2024-04-19T04:16:42.611Z,2.40
2024-04-19T04:19:10.192Z,2.50
2024-04-19T04:21:37.876Z,2.40
2024-04-19T04:24:06.311Z,2.80
2024-04-19T04:26:33.831Z,2.00
2024-04-19T04:29:01.530Z,2.80
2024-04-19T04:31:29.283Z,2.50
2024-04-19T04:33:58.860Z,2.00
2024-04-19T04:36:26.952Z,2.10
2024-04-19T04:38:54.448Z,2.10
2024-04-19T04:41:22.200Z,1.60
2024-04-19T04:43:50.136Z,1.50
2024-04-19T04:46:17.698Z,2.30
2024-04-19T04:48:45.310Z,2.30
2024-04-19T04:51:13.742Z,2.40
2024-04-19T04:53:41.296Z,2.00
2024-04-19T04:56:08.867Z,1.80
2024-04-19T04:58:36.385Z,1.60
2024-04-19T05:01:04.138Z,1.90
2024-04-19T05:03:33.237Z,2.20
2024-04-19T05:06:00.811Z,2.00
2024-04-19T05:08:31.331Z,1.90
2024-04-19T05:10:59.028Z,1.70
2024-04-19T05:13:28.451Z,1.80
2024-04-19T05:15:56.167Z,1.30
2024-04-19T05:18:23.775Z,1.20
2024-04-19T05:20:51.451Z,1.60
2024-04-19T05:23:19.352Z,2.60
2024-04-19T05:25:51.730Z,1.70
2024-04-19T05:28:21.977Z,1.70
2024-04-19T05:30:50.836Z,1.60
2024-04-19T05:33:18.509Z,2.40
2024-04-19T05:35:46.210Z,2.50
2024-04-19T05:38:13.793Z,1.90
2024-04-19T05:40:41.943Z,2.50
2024-04-19T05:43:10.537Z,2.30
2024-04-19T05:45:38.572Z,2.40
2024-04-19T05:48:06.759Z,2.20
2024-04-19T05:50:34.592Z,2.30
2024-04-19T05:53:02.432Z,2.30
2024-04-19T05:55:34.061Z,1.70
2024-04-19T05:58:01.628Z,1.70
2024-04-19T06:00:31.354Z,1.10
2024-04-19T06:02:58.999Z,2.00
2024-04-19T06:05:29.726Z,1.60
2024-04-19T06:07:58.294Z,1.60
2024-04-19T06:10:26.095Z,1.70
2024-04-19T06:12:54.656Z,1.50
2024-04-19T06:15:22.803Z,1.10
2024-04-19T06:17:55.404Z,1.40
2024-04-19T06:20:23.471Z,1.20
2024-04-19T06:22:51.139Z,0.70
2024-04-19T06:25:19.677Z,1.10
2024-04-19T06:27:49.188Z,0.60
2024-04-19T06:30:16.955Z,0.60
2024-04-19T06:32:44.636Z,0.70
2024-04-19T06:35:16.205Z,0.80
2024-04-19T06:40:11.488Z,1.20
2024-04-19T06:42:39.222Z,1.00
2024-04-19T06:45:08.291Z,1.40
2024-04-19T06:47:35.991Z,0.80
2024-04-19T06:50:05.066Z,1.00
2024-04-19T06:52:32.647Z,1.00
2024-04-19T06:55:00.394Z,0.90
2024-04-19T06:57:28.073Z,1.50
2024-04-19T07:00:06.190Z,0.90
2024-04-19T07:02:48.662Z,1.20
2024-04-19T07:05:16.895Z,1.00
2024-04-19T07:07:49.039Z,1.40
2024-04-19T07:10:16.777Z,0.90
2024-04-19T07:12:44.467Z,1.20
2024-04-19T07:15:12.242Z,1.40
2024-04-19T07:17:40.954Z,0.80
2024-04-19T07:20:09.465Z,0.90
2024-04-19T07:22:37.181Z,1.50
2024-04-19T07:25:07.697Z,0.80
2024-04-19T07:27:42.801Z,0.90
2024-04-19T07:30:15.384Z,1.10
2024-04-19T07:32:43.044Z,1.20
2024-04-19T07:35:10.765Z,0.90
2024-04-19T07:37:38.385Z,1.00
2024-04-19T07:40:06.818Z,0.70
2024-04-19T07:42:35.410Z,1.00
2024-04-19T07:45:03.392Z,0.80
2024-04-19T07:47:31.567Z,1.00
2024-04-19T07:49:59.133Z,1.00
2024-04-19T07:52:27.056Z,1.20
2024-04-19T07:54:54.770Z,1.20
2024-04-19T07:57:22.304Z,1.40
2024-04-19T07:59:51.265Z,1.10
2024-04-19T08:02:21.645Z,1.40
2024-04-19T08:04:49.364Z,1.20
2024-04-19T08:07:24.143Z,1.00
2024-04-19T08:09:56.663Z,1.20
2024-04-19T08:12:24.966Z,1.10
2024-04-19T08:14:52.748Z,1.10
2024-04-19T08:17:21.094Z,0.80
2024-04-19T08:19:50.221Z,1.00
2024-04-19T08:22:18.272Z,0.90
2024-04-19T08:24:46.023Z,0.60
2024-04-19T08:27:13.664Z,0.50
2024-04-19T08:29:41.313Z,0.60
2024-04-19T08:32:10.351Z,0.40
2024-04-19T08:34:38.518Z,0.30
2024-04-19T08:37:06.122Z,0.40
2024-04-19T08:39:34.205Z,0.30
2024-04-19T08:42:06.578Z,0.60
2024-04-19T08:44:35.354Z,0.70
2024-04-19T08:47:03.123Z,0.50
2024-04-19T08:49:30.937Z,0.40
2024-04-19T08:52:13.749Z,0.40
2024-04-19T08:54:47.318Z,0.30
2024-04-19T08:57:17.213Z,0.50
2024-04-19T08:59:48.506Z,0.70
2024-04-19T09:02:20.274Z,0.40
2024-04-19T09:04:48.071Z,0.80
2024-04-19T09:07:15.621Z,0.80
2024-04-19T09:09:44.723Z,0.70
2024-04-19T09:12:14.542Z,0.40
2024-04-19T09:14:42.118Z,1.20
2024-04-19T09:17:09.630Z,1.40
2024-04-19T09:19:37.376Z,1.30
2024-04-19T09:22:05.171Z,0.60
2024-04-19T09:24:32.783Z,0.80
2024-04-19T09:27:14.185Z,1.20
2024-04-19T09:29:43.607Z,0.70
2024-04-19T09:32:11.406Z,1.10
2024-04-19T09:34:40.531Z,0.70
2024-04-19T09:37:08.464Z,1.10
2024-04-19T09:39:36.341Z,1.20
2024-04-19T09:42:06.333Z,0.90
2024-04-19T09:44:34.091Z,1.00
2024-04-19T09:47:06.101Z,0.80
2024-04-19T09:49:34.000Z,1.40
2024-04-19T09:52:02.663Z,1.30
2024-04-19T09:54:35.223Z,1.40
2024-04-19T09:57:04.879Z,1.80
2024-04-19T09:59:35.659Z,1.30
2024-04-19T10:02:06.615Z,1.30
2024-04-19T10:04:45.569Z,1.60
2024-04-19T10:07:15.424Z,1.50
2024-04-19T10:09:43.919Z,1.80
2024-04-19T10:12:13.290Z,1.40
2024-04-19T10:14:41.322Z,1.70
2024-04-19T10:17:08.948Z,1.70
2024-04-19T10:19:45.507Z,1.00
2024-04-19T10:22:23.679Z,0.90
2024-04-19T10:25:01.336Z,1.20
2024-04-19T10:27:30.641Z,0.90
2024-04-19T10:30:00.880Z,1.00
2024-04-19T10:32:30.297Z,0.60
2024-04-19T10:34:59.218Z,0.80
2024-04-19T10:37:31.155Z,0.30
2024-04-19T10:39:58.738Z,0.60
2024-04-19T10:42:26.444Z,0.50
2024-04-19T10:44:54.421Z,0.60
2024-04-19T10:47:24.702Z,1.20
2024-04-19T10:49:53.617Z,0.70
2024-04-19T10:52:23.627Z,0.40
2024-04-19T10:54:51.280Z,0.50
2024-04-19T10:57:20.282Z,0.70
2024-04-19T10:59:47.848Z,0.70
2024-04-19T11:02:17.300Z,0.60
2024-04-19T11:04:45.518Z,0.40
2024-04-19T11:07:13.329Z,0.60
2024-04-19T11:09:41.618Z,0.40
2024-04-19T11:12:10.147Z,0.50
2024-04-19T11:14:37.843Z,0.70
2024-04-19T11:17:11.382Z,0.60
2024-04-19T11:19:39.691Z,0.60
2024-04-19T11:22:09.675Z,0.60
2024-04-19T11:24:39.484Z,0.70
2024-04-19T11:27:08.914Z,0.70
2024-04-19T11:29:36.890Z,0.50
2024-04-19T11:32:07.718Z,0.80
2024-04-19T11:34:40.219Z,0.90
2024-04-19T11:37:11.719Z,0.60
2024-04-19T11:39:41.506Z,0.50
2024-04-19T11:42:10.410Z,0.90
2024-04-19T11:44:45.553Z,1.00
2024-04-19T11:47:13.307Z,0.90
2024-04-19T11:49:43.636Z,0.90
2024-04-19T11:52:11.241Z,1.00
2024-04-19T11:54:39.023Z,1.10
2024-04-19T11:57:07.402Z,1.10
2024-04-19T11:59:35.936Z,1.10
2024-04-19T12:02:03.802Z,1.50
2024-04-19T12:04:31.598Z,1.20
2024-04-19T12:07:00.670Z,1.10
2024-04-19T12:09:28.945Z,1.30
2024-04-19T12:15:23.993Z,0.80
2024-04-19T12:17:30.446Z,0.60
2024-04-19T12:20:08.000Z,0.70
2024-04-19T12:22:48.564Z,0.80
2024-04-19T12:25:23.082Z,0.60
2024-04-19T12:27:51.185Z,0.50
2024-04-19T12:30:24.479Z,0.70
2024-04-19T12:32:52.227Z,0.70
2024-04-19T12:35:19.867Z,0.50
2024-04-19T12:37:50.388Z,0.80
2024-04-19T12:40:19.036Z,0.70
2024-04-19T12:42:47.254Z,0.80
2024-04-19T12:45:15.580Z,0.90
2024-04-19T12:48:11.155Z,1.10
2024-04-19T12:50:38.885Z,0.80
2024-04-19T12:53:06.603Z,0.70
2024-04-19T12:55:35.764Z,0.90
2024-04-19T12:58:03.384Z,0.80
2024-04-19T13:00:33.346Z,0.50
2024-04-19T13:03:01.851Z,0.70
2024-04-19T13:05:33.022Z,0.80
2024-04-19T13:08:00.914Z,0.70
2024-04-19T13:10:28.878Z,1.00
2024-04-19T13:12:57.735Z,1.10
2024-04-19T13:15:25.685Z,0.60
2024-04-19T13:17:54.260Z,1.20
2024-04-19T13:20:21.886Z,1.30
2024-04-19T13:22:49.486Z,1.50
2024-04-19T13:25:20.812Z,1.00
2024-04-19T13:27:48.461Z,1.20
2024-04-19T13:30:16.060Z,1.40
2024-04-19T13:32:44.659Z,1.90
2024-04-19T13:35:14.285Z,1.40
2024-04-19T13:37:41.966Z,1.50
2024-04-19T13:40:11.180Z,1.10
2024-04-19T13:42:39.636Z,0.90
2024-04-19T13:45:09.162Z,2.00
2024-04-19T13:47:37.400Z,1.60
2024-04-19T13:50:07.255Z,1.50
2024-04-19T13:52:34.857Z,1.60
2024-04-19T13:55:06.218Z,1.40
2024-04-19T13:57:34.497Z,1.70
2024-04-19T14:00:06.233Z,1.50
2024-04-19T14:02:35.159Z,1.50
2024-04-19T14:05:04.002Z,1.30
2024-04-19T14:07:31.749Z,1.20
2024-04-19T14:10:00.667Z,0.70
2024-04-19T14:12:30.834Z,0.60
2024-04-19T14:15:02.298Z,0.80
2024-04-19T14:17:31.111Z,0.60
2024-04-19T14:20:00.844Z,0.80
2024-04-19T14:22:28.829Z,0.70
2024-04-19T14:24:56.554Z,0.70
2024-04-19T14:27:26.074Z,0.50
2024-04-19T14:29:57.202Z,0.70
2024-04-19T14:32:28.894Z,1.10
2024-04-19T14:34:56.858Z,0.70
2024-04-19T14:37:24.805Z,0.80
2024-04-19T14:39:52.627Z,1.00
2024-04-19T14:42:22.351Z,1.30
2024-04-19T14:45:01.921Z,1.40
2024-04-19T14:47:31.342Z,1.90
2024-04-19T14:50:00.052Z,1.00
2024-04-19T14:52:29.934Z,0.60
2024-04-19T14:54:58.013Z,0.90
2024-04-19T14:57:26.866Z,0.70
2024-04-19T15:00:01.342Z,0.90
2024-04-19T15:02:36.134Z,1.00
2024-04-19T15:05:03.948Z,1.20
2024-04-19T15:07:32.457Z,1.10
2024-04-19T15:10:00.747Z,1.40
2024-04-19T15:12:30.836Z,1.00
2024-04-19T15:14:59.909Z,1.20
2024-04-19T15:17:27.911Z,1.10
2024-04-19T15:19:56.542Z,1.50
2024-04-19T15:22:25.931Z,3.40
2024-04-19T15:24:53.665Z,2.60
2024-04-19T15:27:21.300Z,2.30
2024-04-19T15:29:49.299Z,2.00
2024-04-19T15:32:19.879Z,2.00
2024-04-19T15:34:48.620Z,2.10
2024-04-19T15:37:17.102Z,2.10
2024-04-19T15:39:48.744Z,1.80
2024-04-19T15:42:16.952Z,1.60
2024-04-19T15:44:48.078Z,1.20
2024-04-19T15:47:15.995Z,1.60
2024-04-19T15:49:47.194Z,1.10
2024-04-19T15:52:16.933Z,1.20
2024-04-19T15:54:44.556Z,1.30
2024-04-19T15:57:13.241Z,1.20
2024-04-19T15:59:46.713Z,1.40
2024-04-19T16:02:14.685Z,1.10
2024-04-19T16:04:45.651Z,1.30
2024-04-19T16:07:14.170Z,0.90
2024-04-19T16:09:41.983Z,0.90
2024-04-19T16:12:09.959Z,0.90
2024-04-19T16:14:38.111Z,1.00
2024-04-19T16:17:06.083Z,1.10
2024-04-19T16:19:37.592Z,1.40
2024-04-19T16:22:05.863Z,1.60
2024-04-19T16:24:34.025Z,1.00
2024-04-19T16:27:03.118Z,1.30
2024-04-19T16:29:31.900Z,1.30
2024-04-19T16:31:59.502Z,1.00
2024-04-19T16:34:27.097Z,1.20
2024-04-19T16:36:55.045Z,1.40
2024-04-19T16:39:22.726Z,1.10
2024-04-19T16:41:50.457Z,1.20
2024-04-19T16:44:20.830Z,1.90
2024-04-19T16:46:50.697Z,1.60
2024-04-19T16:49:19.394Z,1.60
2024-04-19T16:51:57.724Z,1.50
2024-04-19T16:54:33.475Z,1.20
2024-04-19T16:57:02.154Z,1.30
2024-04-19T16:59:29.759Z,1.40
2024-04-19T17:01:57.711Z,1.80
2024-04-19T17:04:26.223Z,1.50
2024-04-19T17:06:56.893Z,1.60
2024-04-19T17:09:27.055Z,1.40
2024-04-19T17:11:55.464Z,1.50
2024-04-19T17:14:24.662Z,1.50
2024-04-19T17:16:55.435Z,1.60
2024-04-19T17:19:26.105Z,2.00
2024-04-19T17:21:55.106Z,1.70
2024-04-19T17:24:23.303Z,1.50
2024-04-19T17:26:55.478Z,1.50
2024-04-19T17:29:23.174Z,1.30
2024-04-19T17:31:57.764Z,1.40
2024-04-19T17:34:25.373Z,1.30
2024-04-19T17:36:54.577Z,1.30
2024-04-19T17:39:22.675Z,1.40
2024-04-19T17:41:50.246Z,0.80
2024-04-19T17:44:18.687Z,1.10
2024-04-19T17:49:46.995Z,0.60
2024-04-19T17:52:15.586Z,0.90
2024-04-19T17:54:50.084Z,1.10
2024-04-19T17:57:19.010Z,1.10
2024-04-19T17:59:51.674Z,0.90
2024-04-19T18:02:28.372Z,1.00
2024-04-19T18:04:57.729Z,1.20
2024-04-19T18:07:27.905Z,1.10
2024-04-19T18:09:56.682Z,0.70
2024-04-19T18:12:24.494Z,0.80
2024-04-19T18:14:52.345Z,0.80
2024-04-19T18:17:22.803Z,0.80
2024-04-19T18:20:16.145Z,0.70
2024-04-19T18:22:45.119Z,0.90
2024-04-19T18:25:14.052Z,1.00
2024-04-19T18:27:44.633Z,1.20
2024-04-19T18:30:19.502Z,1.00
2024-04-19T18:32:48.897Z,1.00
2024-04-19T18:35:23.544Z,1.20
2024-04-19T18:37:54.017Z,2.20
2024-04-19T18:40:26.370Z,1.90
2024-04-19T18:42:54.284Z,1.80
2024-04-19T18:45:28.645Z,2.00
2024-04-19T18:47:58.592Z,2.50
2024-04-19T18:50:27.376Z,2.90
2024-04-19T18:52:57.003Z,1.60
2024-04-19T18:58:26.123Z,1.30
2024-04-19T19:00:55.626Z,1.50
2024-04-19T19:03:26.312Z,1.80
2024-04-19T19:06:14.953Z,1.90
2024-04-19T19:08:46.866Z,1.40
2024-04-19T19:11:34.031Z,1.30
2024-04-19T19:14:08.420Z,1.30
2024-04-19T19:16:38.568Z,1.20
2024-04-19T19:19:16.523Z,1.40
2024-04-19T19:21:54.599Z,1.10
2024-04-19T19:24:42.788Z,1.50
2024-04-19T19:30:46.668Z,1.70
2024-04-19T19:33:18.890Z,2.10
2024-04-19T19:36:11.192Z,2.30
2024-04-19T19:38:43.688Z,1.50
2024-04-19T19:41:13.678Z,1.40
2024-04-19T19:43:42.329Z,1.70
2024-04-19T19:46:11.508Z,1.70
2024-04-19T19:48:40.594Z,1.90
2024-04-19T19:51:20.073Z,2.30
2024-04-19T19:53:50.019Z,2.70
2024-04-19T19:56:20.529Z,1.70
2024-04-19T19:58:49.736Z,2.00
2024-04-19T20:01:48.008Z,2.10
2024-04-19T20:04:34.229Z,3.50
2024-04-19T20:07:03.088Z,3.00
2024-04-19T20:09:31.117Z,2.40
2024-04-19T20:12:03.093Z,2.20
2024-04-19T20:17:28.953Z,2.20
2024-04-19T20:19:58.574Z,2.90
2024-04-19T20:22:26.121Z,2.70
2024-04-19T20:24:53.940Z,2.40
2024-04-19T20:27:23.275Z,2.50
2024-04-19T20:29:50.898Z,2.70
2024-04-19T20:32:18.786Z,2.30
2024-04-19T20:34:46.971Z,2.10
2024-04-19T20:37:14.976Z,2.00
2024-04-19T20:39:42.744Z,1.20
2024-04-19T20:42:10.357Z,2.50
2024-04-19T20:44:39.990Z,2.00
2024-04-19T20:47:09.131Z,2.00
2024-04-19T20:49:37.662Z,2.20
2024-04-19T20:52:05.690Z,2.40
2024-04-19T20:54:34.355Z,2.60
2024-04-19T20:57:05.800Z,2.50
2024-04-19T20:59:39.523Z,3.20
2024-04-19T21:02:07.633Z,1.60
2024-04-19T21:04:46.528Z,2.20
2024-04-19T21:07:17.659Z,2.00
2024-04-19T21:12:31.601Z,2.10
2024-04-19T21:15:20.053Z,2.30
2024-04-19T21:17:51.970Z,2.00
2024-04-19T21:20:20.045Z,2.00
2024-04-19T21:22:47.760Z,2.00
2024-04-19T21:25:19.371Z,2.30
2024-04-19T21:27:51.311Z,2.50
2024-04-19T21:30:22.704Z,1.80
2024-04-19T21:32:51.712Z,1.90
2024-04-19T21:35:25.111Z,2.50
2024-04-19T21:37:54.113Z,1.70
2024-04-19T21:40:27.072Z,1.50
2024-04-19T21:42:56.693Z,1.60
2024-04-19T21:45:26.068Z,1.60
2024-04-19T21:47:54.384Z,1.20
2024-04-19T21:50:23.904Z,1.60
2024-04-19T21:52:51.762Z,0.90
2024-04-19T21:55:19.443Z,1.20
2024-04-19T21:57:47.680Z,1.10
2024-04-19T22:00:18.884Z,0.90
2024-04-19T22:02:47.192Z,1.30
2024-04-19T22:05:15.571Z,1.30
2024-04-19T22:07:45.384Z,1.10
2024-04-19T22:10:13.152Z,1.80
2024-04-19T22:12:40.788Z,1.00
2024-04-19T22:15:09.167Z,1.40
2024-04-19T22:17:37.765Z,1.30
2024-04-19T22:20:09.150Z,1.10
2024-04-19T22:22:36.851Z,0.70
2024-04-19T22:25:05.626Z,0.90
2024-04-19T22:27:34.846Z,1.00
2024-04-19T22:30:10.108Z,0.80
2024-04-19T22:33:00.091Z,0.70
2024-04-19T22:35:28.894Z,0.70
2024-04-19T22:37:56.449Z,1.00
2024-04-19T22:40:23.991Z,0.90
2024-04-19T22:42:54.690Z,0.90
2024-04-19T22:45:22.316Z,0.80
2024-04-19T22:47:49.857Z,1.00
2024-04-19T22:50:17.440Z,1.00
2024-04-19T22:52:44.923Z,0.60
2024-04-19T22:55:12.463Z,0.80
2024-04-19T22:57:40.086Z,0.70
2024-04-19T23:00:08.474Z,0.70
2024-04-19T23:02:36.224Z,0.60
2024-04-19T23:05:04.051Z,0.80
2024-04-19T23:07:31.603Z,0.60
2024-04-19T23:09:59.308Z,0.80
2024-04-19T23:12:26.919Z,0.70
2024-04-19T23:14:54.497Z,0.70
2024-04-19T23:17:23.165Z,0.90
2024-04-19T23:19:51.172Z,0.70
2024-04-19T23:22:18.676Z,0.90
2024-04-19T23:24:46.784Z,0.70
2024-04-19T23:27:14.300Z,0.90
2024-04-19T23:29:42.871Z,0.90
2024-04-19T23:32:10.960Z,1.10
2024-04-19T23:34:38.679Z,0.80
2024-04-19T23:37:06.256Z,0.90
2024-04-19T23:39:33.839Z,1.00
2024-04-19T23:42:01.405Z,1.10
2024-04-19T23:44:28.933Z,0.80
2024-04-19T23:46:56.493Z,1.20
2024-04-19T23:49:24.041Z,1.00
2024-04-19T23:51:52.628Z,1.10
2024-04-19T23:54:20.229Z,0.60
2024-04-19T23:56:47.798Z,0.70
2024-04-19T23:59:15.561Z,0.80
